sensor_id;sensor_type;location;lat;lon;timestamp;P1;durP1;ratioP1;P2;durP2;ratioP2
74538;SDS011;66042;51.090;-115.340;2023-04-03T00:01:15;2.20;;;0.50;;
74538;SDS011;66042;51.090;-115.340;2023-04-03T00:03:43;4.90;;;1.20;;
74538;SDS011;66042;51.090;-115.340;2023-04-03T00:06:10;3.50;;;0.90;;
74538;SDS011;66042;51.090;-115.340;2023-04-03T00:08:39;2.80;;;0.70;;
74538;SDS011;66042;51.090;-115.340;2023-04-03T00:11:07;4.50;;;1.20;;
74538;SDS011;66042;51.090;-115.340;2023-04-03T00:13:35;5.90;;;1.40;;
74538;SDS011;66042;51.090;-115.340;2023-04-03T00:16:03;5.70;;;1.40;;
74538;SDS011;66042;51.090;-115.340;2023-04-03T00:18:30;5.70;;;1.20;;
74538;SDS011;66042;51.090;-115.340;2023-04-03T00:20:58;7.40;;;1.30;;
74538;SDS011;66042;51.090;-115.340;2023-04-03T00:23:25;5.70;;;1.70;;
74538;SDS011;66042;51.090;-115.340;2023-04-03T00:25:53;7.50;;;2.20;;
74538;SDS011;66042;51.090;-115.340;2023-04-03T00:28:20;6.10;;;2.00;;
74538;SDS011;66042;51.090;-115.340;2023-04-03T00:30:49;7.20;;;1.70;;
74538;SDS011;66042;51.090;-115.340;2023-04-03T00:33:17;7.70;;;2.00;;
74538;SDS011;66042;51.090;-115.340;2023-04-03T00:35:48;8.00;;;1.70;;
74538;SDS011;66042;51.090;-115.340;2023-04-03T00:38:15;4.60;;;1.50;;
74538;SDS011;66042;51.090;-115.340;2023-04-03T00:40:45;3.60;;;1.50;;
74538;SDS011;66042;51.090;-115.340;2023-04-03T00:43:20;4.30;;;1.10;;
74538;SDS011;66042;51.090;-115.340;2023-04-03T00:45:50;4.20;;;1.10;;
74538;SDS011;66042;51.090;-115.340;2023-04-03T00:48:23;2.50;;;0.90;;
74538;SDS011;66042;51.090;-115.340;2023-04-03T00:51:18;4.10;;;0.80;;
74538;SDS011;66042;51.090;-115.340;2023-04-03T00:53:55;4.70;;;1.10;;
74538;SDS011;66042;51.090;-115.340;2023-04-03T00:56:27;6.20;;;1.20;;
74538;SDS011;66042;51.090;-115.340;2023-04-03T00:59:18;5.50;;;1.20;;
74538;SDS011;66042;51.090;-115.340;2023-04-03T01:01:54;2.10;;;1.00;;
74538;SDS011;66042;51.090;-115.340;2023-04-03T01:04:37;5.60;;;1.10;;
74538;SDS011;66042;51.090;-115.340;2023-04-03T01:07:10;5.30;;;1.60;;
74538;SDS011;66042;51.090;-115.340;2023-04-03T01:09:40;8.20;;;2.00;;
74538;SDS011;66042;51.090;-115.340;2023-04-03T01:12:16;9.40;;;1.90;;
74538;SDS011;66042;51.090;-115.340;2023-04-03T01:14:59;8.20;;;1.90;;
74538;SDS011;66042;51.090;-115.340;2023-04-03T01:17:37;10.40;;;2.00;;
74538;SDS011;66042;51.090;-115.340;2023-04-03T01:26:12;5.90;;;1.20;;
74538;SDS011;66042;51.090;-115.340;2023-04-03T01:28:39;5.10;;;1.30;;
74538;SDS011;66042;51.090;-115.340;2023-04-03T01:33:49;6.80;;;1.80;;
74538;SDS011;66042;51.090;-115.340;2023-04-03T01:36:19;7.80;;;2.00;;
74538;SDS011;66042;51.090;-115.340;2023-04-03T01:38:50;9.00;;;1.60;;
74538;SDS011;66042;51.090;-115.340;2023-04-03T01:41:19;8.70;;;2.10;;
74538;SDS011;66042;51.090;-115.340;2023-04-03T01:43:50;6.40;;;1.80;;
74538;SDS011;66042;51.090;-115.340;2023-04-03T01:46:18;6.90;;;1.40;;
74538;SDS011;66042;51.090;-115.340;2023-04-03T01:48:46;5.70;;;2.00;;
74538;SDS011;66042;51.090;-115.340;2023-04-03T01:51:13;11.20;;;2.30;;
74538;SDS011;66042;51.090;-115.340;2023-04-03T01:53:40;7.10;;;2.40;;
74538;SDS011;66042;51.090;-115.340;2023-04-03T01:56:08;5.40;;;1.90;;
74538;SDS011;66042;51.090;-115.340;2023-04-03T01:58:35;6.40;;;2.20;;
74538;SDS011;66042;51.090;-115.340;2023-04-03T02:01:02;2.60;;;1.40;;
74538;SDS011;66042;51.090;-115.340;2023-04-03T02:03:30;3.40;;;1.20;;
74538;SDS011;66042;51.090;-115.340;2023-04-03T02:05:57;5.30;;;1.70;;
74538;SDS011;66042;51.090;-115.340;2023-04-03T02:08:24;4.80;;;2.20;;
74538;SDS011;66042;51.090;-115.340;2023-04-03T02:10:51;7.90;;;2.80;;
74538;SDS011;66042;51.090;-115.340;2023-04-03T02:13:19;7.60;;;3.90;;
74538;SDS011;66042;51.090;-115.340;2023-04-03T02:15:46;7.30;;;3.80;;
74538;SDS011;66042;51.090;-115.340;2023-04-03T02:18:13;7.20;;;3.90;;
74538;SDS011;66042;51.090;-115.340;2023-04-03T02:20:41;9.10;;;4.60;;
74538;SDS011;66042;51.090;-115.340;2023-04-03T02:23:08;6.90;;;4.50;;
74538;SDS011;66042;51.090;-115.340;2023-04-03T02:25:35;5.80;;;3.80;;
74538;SDS011;66042;51.090;-115.340;2023-04-03T02:28:02;4.70;;;2.90;;
74538;SDS011;66042;51.090;-115.340;2023-04-03T02:30:29;4.50;;;2.30;;
74538;SDS011;66042;51.090;-115.340;2023-04-03T02:32:56;3.30;;;1.90;;
74538;SDS011;66042;51.090;-115.340;2023-04-03T02:35:23;2.90;;;1.50;;
74538;SDS011;66042;51.090;-115.340;2023-04-03T02:37:50;3.90;;;2.10;;
74538;SDS011;66042;51.090;-115.340;2023-04-03T02:40:17;5.10;;;3.10;;
74538;SDS011;66042;51.090;-115.340;2023-04-03T02:42:44;3.70;;;1.60;;
74538;SDS011;66042;51.090;-115.340;2023-04-03T02:45:11;5.00;;;2.60;;
74538;SDS011;66042;51.090;-115.340;2023-04-03T02:47:38;6.70;;;3.00;;
74538;SDS011;66042;51.090;-115.340;2023-04-03T02:50:05;8.20;;;3.80;;
74538;SDS011;66042;51.090;-115.340;2023-04-03T02:52:33;4.60;;;2.60;;
74538;SDS011;66042;51.090;-115.340;2023-04-03T02:55:00;3.70;;;2.50;;
74538;SDS011;66042;51.090;-115.340;2023-04-03T02:57:27;4.10;;;2.50;;
74538;SDS011;66042;51.090;-115.340;2023-04-03T02:59:54;6.50;;;4.10;;
74538;SDS011;66042;51.090;-115.340;2023-04-03T03:02:21;7.80;;;5.00;;
74538;SDS011;66042;51.090;-115.340;2023-04-03T03:04:49;8.60;;;5.50;;
74538;SDS011;66042;51.090;-115.340;2023-04-03T03:07:16;15.10;;;8.70;;
74538;SDS011;66042;51.090;-115.340;2023-04-03T03:09:43;13.70;;;8.30;;
74538;SDS011;66042;51.090;-115.340;2023-04-03T03:12:11;9.70;;;6.00;;
74538;SDS011;66042;51.090;-115.340;2023-04-03T03:14:38;8.00;;;4.40;;
74538;SDS011;66042;51.090;-115.340;2023-04-03T03:17:05;5.70;;;3.40;;
74538;SDS011;66042;51.090;-115.340;2023-04-03T03:19:32;7.50;;;3.60;;
74538;SDS011;66042;51.090;-115.340;2023-04-03T03:21:59;6.00;;;3.60;;
74538;SDS011;66042;51.090;-115.340;2023-04-03T03:24:26;6.80;;;4.40;;
74538;SDS011;66042;51.090;-115.340;2023-04-03T03:26:54;6.00;;;3.00;;
74538;SDS011;66042;51.090;-115.340;2023-04-03T03:29:21;4.50;;;3.10;;
74538;SDS011;66042;51.090;-115.340;2023-04-03T03:31:48;4.00;;;2.20;;
74538;SDS011;66042;51.090;-115.340;2023-04-03T03:34:15;3.30;;;1.80;;
74538;SDS011;66042;51.090;-115.340;2023-04-03T03:36:42;3.80;;;1.80;;
74538;SDS011;66042;51.090;-115.340;2023-04-03T03:39:10;3.70;;;1.90;;
74538;SDS011;66042;51.090;-115.340;2023-04-03T03:41:37;3.60;;;1.50;;
74538;SDS011;66042;51.090;-115.340;2023-04-03T03:44:04;3.60;;;1.90;;
74538;SDS011;66042;51.090;-115.340;2023-04-03T03:46:31;3.40;;;1.50;;
74538;SDS011;66042;51.090;-115.340;2023-04-03T03:48:58;3.20;;;1.40;;
74538;SDS011;66042;51.090;-115.340;2023-04-03T03:51:25;3.70;;;2.00;;
74538;SDS011;66042;51.090;-115.340;2023-04-03T03:53:53;4.30;;;2.20;;
74538;SDS011;66042;51.090;-115.340;2023-04-03T03:56:20;9.40;;;4.90;;
74538;SDS011;66042;51.090;-115.340;2023-04-03T03:58:48;5.20;;;2.80;;
74538;SDS011;66042;51.090;-115.340;2023-04-03T04:01:16;4.40;;;2.80;;
74538;SDS011;66042;51.090;-115.340;2023-04-03T04:03:43;3.60;;;1.90;;
74538;SDS011;66042;51.090;-115.340;2023-04-03T04:06:10;3.10;;;1.60;;
74538;SDS011;66042;51.090;-115.340;2023-04-03T04:08:37;4.70;;;2.30;;
74538;SDS011;66042;51.090;-115.340;2023-04-03T04:11:04;5.80;;;2.60;;
74538;SDS011;66042;51.090;-115.340;2023-04-03T04:13:31;4.40;;;2.80;;
74538;SDS011;66042;51.090;-115.340;2023-04-03T04:15:58;5.40;;;2.00;;
74538;SDS011;66042;51.090;-115.340;2023-04-03T04:18:26;2.60;;;1.60;;
74538;SDS011;66042;51.090;-115.340;2023-04-03T04:20:52;2.40;;;1.10;;
74538;SDS011;66042;51.090;-115.340;2023-04-03T04:23:20;2.50;;;1.40;;
74538;SDS011;66042;51.090;-115.340;2023-04-03T04:25:48;2.50;;;1.30;;
74538;SDS011;66042;51.090;-115.340;2023-04-03T04:28:16;1.70;;;1.00;;
74538;SDS011;66042;51.090;-115.340;2023-04-03T04:30:43;1.80;;;0.90;;
74538;SDS011;66042;51.090;-115.340;2023-04-03T04:33:10;1.90;;;1.00;;
74538;SDS011;66042;51.090;-115.340;2023-04-03T04:35:42;3.00;;;0.90;;
74538;SDS011;66042;51.090;-115.340;2023-04-03T04:38:09;4.40;;;1.00;;
74538;SDS011;66042;51.090;-115.340;2023-04-03T04:40:36;2.00;;;1.30;;
74538;SDS011;66042;51.090;-115.340;2023-04-03T04:43:03;2.50;;;1.50;;
74538;SDS011;66042;51.090;-115.340;2023-04-03T04:45:31;2.80;;;1.10;;
74538;SDS011;66042;51.090;-115.340;2023-04-03T04:47:58;2.50;;;1.30;;
74538;SDS011;66042;51.090;-115.340;2023-04-03T04:50:25;3.70;;;1.30;;
74538;SDS011;66042;51.090;-115.340;2023-04-03T04:52:52;3.10;;;1.40;;
74538;SDS011;66042;51.090;-115.340;2023-04-03T04:55:19;2.20;;;1.20;;
74538;SDS011;66042;51.090;-115.340;2023-04-03T04:57:46;3.00;;;1.70;;
74538;SDS011;66042;51.090;-115.340;2023-04-03T05:00:14;1.80;;;1.20;;
74538;SDS011;66042;51.090;-115.340;2023-04-03T05:02:41;3.40;;;1.70;;
74538;SDS011;66042;51.090;-115.340;2023-04-03T05:05:09;2.50;;;1.50;;
74538;SDS011;66042;51.090;-115.340;2023-04-03T05:07:36;2.60;;;1.50;;
74538;SDS011;66042;51.090;-115.340;2023-04-03T05:10:03;1.90;;;0.90;;
74538;SDS011;66042;51.090;-115.340;2023-04-03T05:12:30;2.90;;;1.60;;
74538;SDS011;66042;51.090;-115.340;2023-04-03T05:14:58;3.60;;;1.90;;
74538;SDS011;66042;51.090;-115.340;2023-04-03T05:17:25;2.40;;;1.60;;
74538;SDS011;66042;51.090;-115.340;2023-04-03T05:19:53;4.60;;;2.40;;
74538;SDS011;66042;51.090;-115.340;2023-04-03T05:22:20;3.00;;;1.90;;
74538;SDS011;66042;51.090;-115.340;2023-04-03T05:24:47;2.90;;;1.80;;
74538;SDS011;66042;51.090;-115.340;2023-04-03T05:27:14;3.30;;;2.10;;
74538;SDS011;66042;51.090;-115.340;2023-04-03T05:29:42;3.80;;;1.60;;
74538;SDS011;66042;51.090;-115.340;2023-04-03T05:32:10;3.40;;;1.00;;
74538;SDS011;66042;51.090;-115.340;2023-04-03T05:34:37;1.90;;;0.90;;
74538;SDS011;66042;51.090;-115.340;2023-04-03T05:37:05;2.90;;;0.80;;
74538;SDS011;66042;51.090;-115.340;2023-04-03T05:39:32;4.40;;;1.20;;
74538;SDS011;66042;51.090;-115.340;2023-04-03T05:41:59;2.50;;;1.40;;
74538;SDS011;66042;51.090;-115.340;2023-04-03T05:44:26;3.30;;;1.30;;
74538;SDS011;66042;51.090;-115.340;2023-04-03T05:46:53;3.00;;;1.50;;
74538;SDS011;66042;51.090;-115.340;2023-04-03T05:49:20;2.30;;;1.20;;
74538;SDS011;66042;51.090;-115.340;2023-04-03T05:51:48;2.50;;;1.50;;
74538;SDS011;66042;51.090;-115.340;2023-04-03T05:54:22;2.80;;;1.40;;
74538;SDS011;66042;51.090;-115.340;2023-04-03T05:56:52;4.30;;;1.80;;
74538;SDS011;66042;51.090;-115.340;2023-04-03T05:59:19;3.30;;;1.60;;
74538;SDS011;66042;51.090;-115.340;2023-04-03T06:01:47;3.80;;;1.50;;
74538;SDS011;66042;51.090;-115.340;2023-04-03T06:04:15;4.20;;;1.70;;
74538;SDS011;66042;51.090;-115.340;2023-04-03T06:06:55;4.90;;;2.20;;
74538;SDS011;66042;51.090;-115.340;2023-04-03T06:09:26;3.60;;;1.70;;
74538;SDS011;66042;51.090;-115.340;2023-04-03T06:11:57;4.50;;;2.00;;
74538;SDS011;66042;51.090;-115.340;2023-04-03T06:14:25;3.60;;;1.80;;
74538;SDS011;66042;51.090;-115.340;2023-04-03T06:16:53;5.40;;;2.40;;
74538;SDS011;66042;51.090;-115.340;2023-04-03T06:19:20;4.40;;;3.00;;
74538;SDS011;66042;51.090;-115.340;2023-04-03T06:21:47;5.90;;;3.40;;
74538;SDS011;66042;51.090;-115.340;2023-04-03T06:24:16;5.90;;;3.20;;
74538;SDS011;66042;51.090;-115.340;2023-04-03T06:26:44;6.70;;;2.50;;
74538;SDS011;66042;51.090;-115.340;2023-04-03T06:29:12;4.00;;;2.10;;
74538;SDS011;66042;51.090;-115.340;2023-04-03T06:31:38;4.80;;;2.40;;
74538;SDS011;66042;51.090;-115.340;2023-04-03T06:34:06;4.50;;;1.80;;
74538;SDS011;66042;51.090;-115.340;2023-04-03T06:36:34;4.20;;;2.10;;
74538;SDS011;66042;51.090;-115.340;2023-04-03T06:39:01;3.40;;;2.00;;
74538;SDS011;66042;51.090;-115.340;2023-04-03T06:41:29;5.00;;;2.20;;
74538;SDS011;66042;51.090;-115.340;2023-04-03T06:43:56;3.80;;;1.90;;
74538;SDS011;66042;51.090;-115.340;2023-04-03T06:46:26;4.10;;;1.90;;
74538;SDS011;66042;51.090;-115.340;2023-04-03T06:48:53;5.50;;;2.20;;
74538;SDS011;66042;51.090;-115.340;2023-04-03T06:51:23;3.20;;;1.30;;
74538;SDS011;66042;51.090;-115.340;2023-04-03T06:53:53;3.40;;;1.90;;
74538;SDS011;66042;51.090;-115.340;2023-04-03T06:56:22;3.80;;;1.70;;
74538;SDS011;66042;51.090;-115.340;2023-04-03T06:58:50;3.30;;;1.80;;
74538;SDS011;66042;51.090;-115.340;2023-04-03T07:01:18;3.70;;;1.70;;
74538;SDS011;66042;51.090;-115.340;2023-04-03T07:03:45;3.10;;;1.30;;
74538;SDS011;66042;51.090;-115.340;2023-04-03T07:06:16;3.10;;;1.60;;
74538;SDS011;66042;51.090;-115.340;2023-04-03T07:08:44;3.80;;;1.80;;
74538;SDS011;66042;51.090;-115.340;2023-04-03T07:11:12;5.00;;;1.60;;
74538;SDS011;66042;51.090;-115.340;2023-04-03T07:13:40;3.00;;;1.10;;
74538;SDS011;66042;51.090;-115.340;2023-04-03T07:16:08;2.30;;;1.00;;
74538;SDS011;66042;51.090;-115.340;2023-04-03T07:18:36;2.50;;;1.30;;
74538;SDS011;66042;51.090;-115.340;2023-04-03T07:21:03;3.60;;;1.30;;
74538;SDS011;66042;51.090;-115.340;2023-04-03T07:23:31;3.50;;;1.70;;
74538;SDS011;66042;51.090;-115.340;2023-04-03T07:25:58;4.30;;;2.50;;
74538;SDS011;66042;51.090;-115.340;2023-04-03T07:28:25;4.50;;;1.50;;
74538;SDS011;66042;51.090;-115.340;2023-04-03T07:31:04;2.90;;;1.80;;
74538;SDS011;66042;51.090;-115.340;2023-04-03T07:33:34;8.90;;;2.30;;
74538;SDS011;66042;51.090;-115.340;2023-04-03T07:36:02;3.10;;;1.70;;
74538;SDS011;66042;51.090;-115.340;2023-04-03T07:38:30;3.00;;;1.50;;
74538;SDS011;66042;51.090;-115.340;2023-04-03T07:40:57;4.60;;;1.10;;
74538;SDS011;66042;51.090;-115.340;2023-04-03T07:43:25;4.90;;;1.60;;
74538;SDS011;66042;51.090;-115.340;2023-04-03T07:45:52;2.30;;;1.50;;
74538;SDS011;66042;51.090;-115.340;2023-04-03T07:48:25;2.50;;;1.20;;
74538;SDS011;66042;51.090;-115.340;2023-04-03T07:50:53;3.00;;;1.70;;
74538;SDS011;66042;51.090;-115.340;2023-04-03T07:53:19;3.30;;;1.30;;
74538;SDS011;66042;51.090;-115.340;2023-04-03T07:55:48;2.80;;;1.50;;
74538;SDS011;66042;51.090;-115.340;2023-04-03T07:58:18;4.40;;;1.90;;
74538;SDS011;66042;51.090;-115.340;2023-04-03T08:00:45;4.70;;;1.60;;
74538;SDS011;66042;51.090;-115.340;2023-04-03T08:03:14;4.10;;;1.10;;
74538;SDS011;66042;51.090;-115.340;2023-04-03T08:05:46;4.00;;;1.70;;
74538;SDS011;66042;51.090;-115.340;2023-04-03T08:08:22;3.00;;;1.10;;
74538;SDS011;66042;51.090;-115.340;2023-04-03T08:10:53;2.70;;;1.40;;
74538;SDS011;66042;51.090;-115.340;2023-04-03T08:13:21;2.70;;;1.10;;
74538;SDS011;66042;51.090;-115.340;2023-04-03T08:15:51;5.20;;;1.00;;
74538;SDS011;66042;51.090;-115.340;2023-04-03T08:18:18;3.20;;;1.10;;
74538;SDS011;66042;51.090;-115.340;2023-04-03T08:20:47;2.10;;;1.20;;
74538;SDS011;66042;51.090;-115.340;2023-04-03T08:23:14;2.20;;;0.80;;
74538;SDS011;66042;51.090;-115.340;2023-04-03T08:25:43;1.80;;;1.10;;
74538;SDS011;66042;51.090;-115.340;2023-04-03T08:28:11;2.90;;;0.80;;
74538;SDS011;66042;51.090;-115.340;2023-04-03T08:30:42;2.60;;;1.10;;
74538;SDS011;66042;51.090;-115.340;2023-04-03T08:33:09;3.50;;;1.70;;
74538;SDS011;66042;51.090;-115.340;2023-04-03T08:35:40;2.90;;;1.60;;
74538;SDS011;66042;51.090;-115.340;2023-04-03T08:38:09;2.30;;;1.00;;
74538;SDS011;66042;51.090;-115.340;2023-04-03T08:40:37;2.40;;;1.00;;
74538;SDS011;66042;51.090;-115.340;2023-04-03T08:43:37;3.60;;;1.00;;
74538;SDS011;66042;51.090;-115.340;2023-04-03T08:46:26;2.10;;;1.10;;
74538;SDS011;66042;51.090;-115.340;2023-04-03T08:49:14;1.60;;;0.80;;
74538;SDS011;66042;51.090;-115.340;2023-04-03T08:51:56;1.20;;;0.60;;
74538;SDS011;66042;51.090;-115.340;2023-04-03T08:54:59;1.10;;;0.50;;
74538;SDS011;66042;51.090;-115.340;2023-04-03T09:00:26;1.40;;;0.70;;
74538;SDS011;66042;51.090;-115.340;2023-04-03T09:02:57;1.30;;;0.90;;
74538;SDS011;66042;51.090;-115.340;2023-04-03T09:05:39;2.50;;;0.70;;
74538;SDS011;66042;51.090;-115.340;2023-04-03T09:14:07;2.40;;;1.10;;
74538;SDS011;66042;51.090;-115.340;2023-04-03T09:17:52;2.50;;;1.40;;
74538;SDS011;66042;51.090;-115.340;2023-04-03T09:20:17;2.50;;;1.20;;
74538;SDS011;66042;51.090;-115.340;2023-04-03T09:26:09;2.60;;;1.60;;
74538;SDS011;66042;51.090;-115.340;2023-04-03T09:29:02;2.40;;;1.30;;
74538;SDS011;66042;51.090;-115.340;2023-04-03T09:31:40;5.20;;;1.70;;
74538;SDS011;66042;51.090;-115.340;2023-04-03T09:34:23;3.30;;;1.40;;
74538;SDS011;66042;51.090;-115.340;2023-04-03T09:37:00;2.50;;;1.40;;
74538;SDS011;66042;51.090;-115.340;2023-04-03T09:39:48;2.80;;;1.50;;
74538;SDS011;66042;51.090;-115.340;2023-04-03T09:42:22;4.40;;;1.70;;
74538;SDS011;66042;51.090;-115.340;2023-04-03T09:45:02;5.10;;;2.30;;
74538;SDS011;66042;51.090;-115.340;2023-04-03T09:47:33;6.30;;;2.90;;
74538;SDS011;66042;51.090;-115.340;2023-04-03T09:52:44;4.50;;;2.00;;
74538;SDS011;66042;51.090;-115.340;2023-04-03T09:55:26;3.10;;;2.00;;
74538;SDS011;66042;51.090;-115.340;2023-04-03T09:57:59;3.90;;;1.90;;
74538;SDS011;66042;51.090;-115.340;2023-04-03T10:00:35;3.00;;;1.10;;
74538;SDS011;66042;51.090;-115.340;2023-04-03T10:03:05;3.30;;;1.70;;
74538;SDS011;66042;51.090;-115.340;2023-04-03T10:05:55;3.50;;;1.60;;
74538;SDS011;66042;51.090;-115.340;2023-04-03T10:08:32;3.40;;;1.70;;
74538;SDS011;66042;51.090;-115.340;2023-04-03T10:11:13;4.10;;;1.60;;
74538;SDS011;66042;51.090;-115.340;2023-04-03T10:16:53;4.00;;;1.40;;
74538;SDS011;66042;51.090;-115.340;2023-04-03T10:39:33;4.40;;;2.10;;
74538;SDS011;66042;51.090;-115.340;2023-04-03T10:45:46;3.70;;;1.90;;
74538;SDS011;66042;51.090;-115.340;2023-04-03T10:48:57;4.10;;;2.00;;
74538;SDS011;66042;51.090;-115.340;2023-04-03T10:55:08;7.30;;;2.20;;
74538;SDS011;66042;51.090;-115.340;2023-04-03T10:58:05;3.60;;;1.60;;
74538;SDS011;66042;51.090;-115.340;2023-04-03T11:00:40;4.10;;;2.30;;
74538;SDS011;66042;51.090;-115.340;2023-04-03T11:06:05;5.60;;;2.70;;
74538;SDS011;66042;51.090;-115.340;2023-04-03T11:11:34;7.60;;;3.30;;
74538;SDS011;66042;51.090;-115.340;2023-04-03T11:14:34;5.70;;;2.80;;
74538;SDS011;66042;51.090;-115.340;2023-04-03T11:19:59;7.00;;;1.90;;
74538;SDS011;66042;51.090;-115.340;2023-04-03T11:22:51;3.10;;;1.90;;
74538;SDS011;66042;51.090;-115.340;2023-04-03T11:25:25;3.00;;;1.80;;
74538;SDS011;66042;51.090;-115.340;2023-04-03T11:28:13;3.40;;;2.00;;
74538;SDS011;66042;51.090;-115.340;2023-04-03T11:30:56;5.30;;;1.90;;
74538;SDS011;66042;51.090;-115.340;2023-04-03T11:37:00;5.40;;;2.00;;
74538;SDS011;66042;51.090;-115.340;2023-04-03T11:39:36;4.30;;;1.90;;
74538;SDS011;66042;51.090;-115.340;2023-04-03T11:42:37;4.00;;;1.90;;
74538;SDS011;66042;51.090;-115.340;2023-04-03T11:51:01;3.50;;;1.60;;
74538;SDS011;66042;51.090;-115.340;2023-04-03T11:53:37;4.60;;;1.80;;
74538;SDS011;66042;51.090;-115.340;2023-04-03T12:01:56;3.10;;;1.30;;
74538;SDS011;66042;51.090;-115.340;2023-04-03T12:04:27;3.60;;;1.80;;
74538;SDS011;66042;51.090;-115.340;2023-04-03T12:07:21;2.60;;;1.50;;
74538;SDS011;66042;51.090;-115.340;2023-04-03T12:12:34;3.50;;;2.00;;
74538;SDS011;66042;51.090;-115.340;2023-04-03T12:18:42;7.40;;;3.00;;
74538;SDS011;66042;51.090;-115.340;2023-04-03T12:21:11;7.10;;;2.30;;
74538;SDS011;66042;51.090;-115.340;2023-04-03T12:24:02;3.20;;;1.90;;
74538;SDS011;66042;51.090;-115.340;2023-04-03T12:26:46;4.80;;;1.30;;
74538;SDS011;66042;51.090;-115.340;2023-04-03T12:32:03;2.90;;;1.00;;
74538;SDS011;66042;51.090;-115.340;2023-04-03T12:40:58;2.30;;;1.10;;
74538;SDS011;66042;51.090;-115.340;2023-04-03T12:43:34;4.80;;;1.40;;
74538;SDS011;66042;51.090;-115.340;2023-04-03T12:48:46;3.70;;;1.30;;
74538;SDS011;66042;51.090;-115.340;2023-04-03T12:51:37;2.90;;;1.40;;
74538;SDS011;66042;51.090;-115.340;2023-04-03T12:54:35;2.60;;;1.10;;
74538;SDS011;66042;51.090;-115.340;2023-04-03T12:57:33;2.60;;;1.60;;
74538;SDS011;66042;51.090;-115.340;2023-04-03T13:00:00;2.90;;;1.50;;
74538;SDS011;66042;51.090;-115.340;2023-04-03T13:02:45;3.90;;;2.00;;
74538;SDS011;66042;51.090;-115.340;2023-04-03T13:05:18;3.10;;;1.50;;
74538;SDS011;66042;51.090;-115.340;2023-04-03T13:08:04;2.70;;;1.30;;
74538;SDS011;66042;51.090;-115.340;2023-04-03T13:11:05;4.10;;;1.50;;
74538;SDS011;66042;51.090;-115.340;2023-04-03T13:13:38;3.40;;;1.30;;
74538;SDS011;66042;51.090;-115.340;2023-04-03T13:16:10;2.80;;;1.20;;
74538;SDS011;66042;51.090;-115.340;2023-04-03T13:18:40;2.90;;;1.50;;
74538;SDS011;66042;51.090;-115.340;2023-04-03T13:21:17;6.70;;;1.50;;
74538;SDS011;66042;51.090;-115.340;2023-04-03T13:23:58;2.80;;;1.30;;
74538;SDS011;66042;51.090;-115.340;2023-04-03T13:26:30;3.50;;;1.90;;
74538;SDS011;66042;51.090;-115.340;2023-04-03T13:29:06;4.30;;;1.70;;
74538;SDS011;66042;51.090;-115.340;2023-04-03T13:31:43;4.60;;;1.80;;
74538;SDS011;66042;51.090;-115.340;2023-04-03T13:34:13;3.40;;;1.50;;
74538;SDS011;66042;51.090;-115.340;2023-04-03T13:37:04;4.60;;;1.80;;
74538;SDS011;66042;51.090;-115.340;2023-04-03T13:39:35;4.90;;;2.00;;
74538;SDS011;66042;51.090;-115.340;2023-04-03T13:42:25;4.30;;;2.00;;
74538;SDS011;66042;51.090;-115.340;2023-04-03T13:45:24;3.20;;;1.90;;
74538;SDS011;66042;51.090;-115.340;2023-04-03T13:48:16;3.00;;;1.20;;
74538;SDS011;66042;51.090;-115.340;2023-04-03T13:51:30;5.30;;;1.70;;
74538;SDS011;66042;51.090;-115.340;2023-04-03T13:53:58;3.40;;;1.20;;
74538;SDS011;66042;51.090;-115.340;2023-04-03T13:56:34;3.30;;;1.40;;
74538;SDS011;66042;51.090;-115.340;2023-04-03T14:01:54;1.70;;;0.80;;
74538;SDS011;66042;51.090;-115.340;2023-04-03T14:04:50;4.20;;;1.00;;
74538;SDS011;66042;51.090;-115.340;2023-04-03T14:07:25;3.40;;;1.40;;
74538;SDS011;66042;51.090;-115.340;2023-04-03T14:09:54;1.90;;;1.10;;
74538;SDS011;66042;51.090;-115.340;2023-04-03T14:12:35;4.20;;;1.30;;
74538;SDS011;66042;51.090;-115.340;2023-04-03T14:15:32;3.60;;;1.40;;
74538;SDS011;66042;51.090;-115.340;2023-04-03T14:17:59;2.90;;;1.40;;
74538;SDS011;66042;51.090;-115.340;2023-04-03T14:20:27;3.60;;;1.60;;
74538;SDS011;66042;51.090;-115.340;2023-04-03T14:22:54;3.80;;;1.30;;
74538;SDS011;66042;51.090;-115.340;2023-04-03T14:25:22;4.10;;;1.20;;
74538;SDS011;66042;51.090;-115.340;2023-04-03T14:27:51;4.30;;;1.30;;
74538;SDS011;66042;51.090;-115.340;2023-04-03T14:30:26;3.60;;;1.40;;
74538;SDS011;66042;51.090;-115.340;2023-04-03T14:32:56;2.60;;;1.30;;
74538;SDS011;66042;51.090;-115.340;2023-04-03T14:35:24;3.10;;;1.10;;
74538;SDS011;66042;51.090;-115.340;2023-04-03T14:37:55;4.60;;;1.70;;
74538;SDS011;66042;51.090;-115.340;2023-04-03T14:40:25;3.50;;;1.50;;
74538;SDS011;66042;51.090;-115.340;2023-04-03T14:42:54;3.00;;;1.40;;
74538;SDS011;66042;51.090;-115.340;2023-04-03T14:45:24;4.90;;;1.90;;
74538;SDS011;66042;51.090;-115.340;2023-04-03T14:47:54;4.80;;;1.70;;
74538;SDS011;66042;51.090;-115.340;2023-04-03T14:50:25;4.20;;;1.70;;
74538;SDS011;66042;51.090;-115.340;2023-04-03T14:52:56;3.50;;;1.60;;
74538;SDS011;66042;51.090;-115.340;2023-04-03T14:55:25;2.70;;;1.70;;
74538;SDS011;66042;51.090;-115.340;2023-04-03T14:57:53;5.50;;;1.50;;
74538;SDS011;66042;51.090;-115.340;2023-04-03T15:00:21;5.50;;;0.90;;
74538;SDS011;66042;51.090;-115.340;2023-04-03T15:02:49;3.70;;;1.30;;
74538;SDS011;66042;51.090;-115.340;2023-04-03T15:05:16;2.00;;;1.10;;
74538;SDS011;66042;51.090;-115.340;2023-04-03T15:07:53;2.60;;;1.40;;
74538;SDS011;66042;51.090;-115.340;2023-04-03T15:10:27;3.00;;;1.40;;
74538;SDS011;66042;51.090;-115.340;2023-04-03T15:12:57;4.80;;;1.30;;
74538;SDS011;66042;51.090;-115.340;2023-04-03T15:15:24;2.10;;;1.00;;
74538;SDS011;66042;51.090;-115.340;2023-04-03T15:17:56;2.30;;;1.20;;
74538;SDS011;66042;51.090;-115.340;2023-04-03T15:20:25;3.50;;;2.10;;
74538;SDS011;66042;51.090;-115.340;2023-04-03T15:22:56;3.30;;;1.80;;
74538;SDS011;66042;51.090;-115.340;2023-04-03T15:25:26;3.20;;;1.20;;
74538;SDS011;66042;51.090;-115.340;2023-04-03T15:27:55;2.60;;;1.50;;
74538;SDS011;66042;51.090;-115.340;2023-04-03T15:30:22;2.60;;;1.30;;
74538;SDS011;66042;51.090;-115.340;2023-04-03T15:32:50;3.00;;;1.30;;
74538;SDS011;66042;51.090;-115.340;2023-04-03T15:35:17;4.10;;;1.70;;
74538;SDS011;66042;51.090;-115.340;2023-04-03T15:37:44;4.50;;;1.70;;
74538;SDS011;66042;51.090;-115.340;2023-04-03T15:40:11;2.20;;;1.00;;
74538;SDS011;66042;51.090;-115.340;2023-04-03T15:42:39;2.80;;;1.60;;
74538;SDS011;66042;51.090;-115.340;2023-04-03T15:45:08;2.90;;;1.60;;
74538;SDS011;66042;51.090;-115.340;2023-04-03T15:47:35;2.20;;;1.70;;
74538;SDS011;66042;51.090;-115.340;2023-04-03T15:50:02;3.10;;;1.30;;
74538;SDS011;66042;51.090;-115.340;2023-04-03T15:52:33;4.20;;;1.60;;
74538;SDS011;66042;51.090;-115.340;2023-04-03T15:55:01;4.60;;;1.50;;
74538;SDS011;66042;51.090;-115.340;2023-04-03T15:57:29;4.60;;;1.60;;
74538;SDS011;66042;51.090;-115.340;2023-04-03T15:59:56;3.60;;;1.80;;
74538;SDS011;66042;51.090;-115.340;2023-04-03T16:02:23;6.20;;;1.50;;
74538;SDS011;66042;51.090;-115.340;2023-04-03T16:04:54;4.20;;;1.10;;
74538;SDS011;66042;51.090;-115.340;2023-04-03T16:07:22;3.30;;;1.50;;
74538;SDS011;66042;51.090;-115.340;2023-04-03T16:09:49;5.30;;;1.70;;
74538;SDS011;66042;51.090;-115.340;2023-04-03T16:12:16;3.30;;;1.70;;
74538;SDS011;66042;51.090;-115.340;2023-04-03T16:14:43;4.10;;;1.50;;